sensor_id;sensor_type;location;lat;lon;timestamp;P1;durP1;ratioP1;P2;durP2;ratioP2
11255;SDS011;5685;52.384;13.420;2022-11-04T00:02:48;15.17;;;13.80;;
11255;SDS011;5685;52.384;13.420;2022-11-04T00:05:51;16.07;;;14.47;;
11255;SDS011;5685;52.384;13.420;2022-11-04T00:08:55;15.13;;;13.70;;
11255;SDS011;5685;52.384;13.420;2022-11-04T00:11:58;14.67;;;13.43;;
11255;SDS011;5685;52.384;13.420;2022-11-04T00:15:18;14.67;;;13.37;;
11255;SDS011;5685;52.384;13.420;2022-11-04T00:18:38;14.40;;;13.13;;
11255;SDS011;5685;52.384;13.420;2022-11-04T00:21:41;13.43;;;12.30;;
11255;SDS011;5685;52.384;13.420;2022-11-04T00:25:01;13.83;;;12.67;;
11255;SDS011;5685;52.384;13.420;2022-11-04T00:28:20;14.23;;;13.20;;
11255;SDS011;5685;52.384;13.420;2022-11-04T00:31:40;13.73;;;12.63;;
11255;SDS011;5685;52.384;13.420;2022-11-04T00:35:00;14.20;;;12.90;;
11255;SDS011;5685;52.384;13.420;2022-11-04T00:38:04;13.23;;;11.97;;
11255;SDS011;5685;52.384;13.420;2022-11-04T00:41:06;14.73;;;13.57;;
11255;SDS011;5685;52.384;13.420;2022-11-04T00:44:24;14.00;;;12.83;;
11255;SDS011;5685;52.384;13.420;2022-11-04T00:47:27;13.50;;;12.27;;
11255;SDS011;5685;52.384;13.420;2022-11-04T00:50:29;14.70;;;13.27;;
11255;SDS011;5685;52.384;13.420;2022-11-04T00:53:33;11.90;;;11.20;;
11255;SDS011;5685;52.384;13.420;2022-11-04T00:56:36;14.10;;;12.80;;
11255;SDS011;5685;52.384;13.420;2022-11-04T00:59:38;13.23;;;12.30;;
11255;SDS011;5685;52.384;13.420;2022-11-04T01:02:41;13.40;;;12.43;;
11255;SDS011;5685;52.384;13.420;2022-11-04T01:05:43;13.30;;;12.20;;
11255;SDS011;5685;52.384;13.420;2022-11-04T01:08:47;13.50;;;12.50;;
11255;SDS011;5685;52.384;13.420;2022-11-04T01:11:49;13.23;;;12.23;;
11255;SDS011;5685;52.384;13.420;2022-11-04T01:14:51;13.10;;;12.10;;
11255;SDS011;5685;52.384;13.420;2022-11-04T01:17:53;12.90;;;11.90;;
11255;SDS011;5685;52.384;13.420;2022-11-04T01:20:58;13.23;;;12.13;;
11255;SDS011;5685;52.384;13.420;2022-11-04T01:24:03;13.23;;;12.20;;
11255;SDS011;5685;52.384;13.420;2022-11-04T01:27:06;13.00;;;11.80;;
11255;SDS011;5685;52.384;13.420;2022-11-04T01:30:09;13.00;;;11.90;;
11255;SDS011;5685;52.384;13.420;2022-11-04T01:33:12;13.43;;;12.43;;
11255;SDS011;5685;52.384;13.420;2022-11-04T01:36:14;13.40;;;12.30;;
11255;SDS011;5685;52.384;13.420;2022-11-04T01:39:19;14.57;;;13.07;;
11255;SDS011;5685;52.384;13.420;2022-11-04T01:42:21;12.63;;;11.73;;
11255;SDS011;5685;52.384;13.420;2022-11-04T01:45:24;13.10;;;12.20;;
11255;SDS011;5685;52.384;13.420;2022-11-04T01:48:27;13.13;;;12.13;;
11255;SDS011;5685;52.384;13.420;2022-11-04T01:51:33;12.13;;;11.33;;
11255;SDS011;5685;52.384;13.420;2022-11-04T01:54:40;12.73;;;11.73;;
11255;SDS011;5685;52.384;13.420;2022-11-04T01:57:44;13.53;;;12.53;;
11255;SDS011;5685;52.384;13.420;2022-11-04T02:00:49;12.97;;;11.77;;
11255;SDS011;5685;52.384;13.420;2022-11-04T02:03:52;13.07;;;12.10;;
11255;SDS011;5685;52.384;13.420;2022-11-04T02:07:20;12.60;;;11.63;;
11255;SDS011;5685;52.384;13.420;2022-11-04T02:10:24;13.27;;;12.17;;
11255;SDS011;5685;52.384;13.420;2022-11-04T02:13:30;12.90;;;11.80;;
11255;SDS011;5685;52.384;13.420;2022-11-04T02:16:35;13.27;;;12.27;;
11255;SDS011;5685;52.384;13.420;2022-11-04T02:19:56;13.57;;;12.67;;
11255;SDS011;5685;52.384;13.420;2022-11-04T02:23:25;13.07;;;12.00;;
11255;SDS011;5685;52.384;13.420;2022-11-04T02:27:13;13.43;;;12.40;;
11255;SDS011;5685;52.384;13.420;2022-11-04T02:30:28;12.40;;;11.37;;
11255;SDS011;5685;52.384;13.420;2022-11-04T02:33:38;13.57;;;12.30;;
11255;SDS011;5685;52.384;13.420;2022-11-04T02:36:50;13.43;;;12.40;;
11255;SDS011;5685;52.384;13.420;2022-11-04T02:43:07;14.07;;;12.73;;
11255;SDS011;5685;52.384;13.420;2022-11-04T02:46:18;13.67;;;12.57;;
11255;SDS011;5685;52.384;13.420;2022-11-04T02:49:26;13.83;;;12.73;;
11255;SDS011;5685;52.384;13.420;2022-11-04T02:52:36;13.63;;;12.53;;
11255;SDS011;5685;52.384;13.420;2022-11-04T02:55:44;13.00;;;12.10;;
11255;SDS011;5685;52.384;13.420;2022-11-04T02:58:50;13.03;;;12.00;;
11255;SDS011;5685;52.384;13.420;2022-11-04T03:01:57;13.13;;;12.03;;
11255;SDS011;5685;52.384;13.420;2022-11-04T03:05:01;13.03;;;12.10;;
11255;SDS011;5685;52.384;13.420;2022-11-04T03:08:07;12.30;;;11.40;;
11255;SDS011;5685;52.384;13.420;2022-11-04T03:11:14;12.80;;;11.90;;
11255;SDS011;5685;52.384;13.420;2022-11-04T03:14:19;12.97;;;12.07;;
11255;SDS011;5685;52.384;13.420;2022-11-04T03:17:27;12.60;;;11.60;;
11255;SDS011;5685;52.384;13.420;2022-11-04T03:20:35;13.03;;;12.03;;
11255;SDS011;5685;52.384;13.420;2022-11-04T03:23:41;12.47;;;11.67;;
11255;SDS011;5685;52.384;13.420;2022-11-04T03:26:45;13.00;;;12.00;;
11255;SDS011;5685;52.384;13.420;2022-11-04T03:29:55;12.90;;;11.90;;
11255;SDS011;5685;52.384;13.420;2022-11-04T03:33:02;12.70;;;11.80;;
11255;SDS011;5685;52.384;13.420;2022-11-04T03:36:11;12.60;;;11.60;;
11255;SDS011;5685;52.384;13.420;2022-11-04T03:39:14;14.00;;;12.80;;
11255;SDS011;5685;52.384;13.420;2022-11-04T03:42:16;14.67;;;13.07;;
11255;SDS011;5685;52.384;13.420;2022-11-04T03:45:21;13.47;;;12.43;;
11255;SDS011;5685;52.384;13.420;2022-11-04T03:48:25;13.70;;;12.63;;
11255;SDS011;5685;52.384;13.420;2022-11-04T03:51:27;13.43;;;12.33;;
11255;SDS011;5685;52.384;13.420;2022-11-04T03:54:29;13.33;;;12.43;;
11255;SDS011;5685;52.384;13.420;2022-11-04T03:57:37;14.00;;;12.90;;
11255;SDS011;5685;52.384;13.420;2022-11-04T04:00:51;13.63;;;12.63;;
11255;SDS011;5685;52.384;13.420;2022-11-04T04:04:03;14.23;;;12.90;;
11255;SDS011;5685;52.384;13.420;2022-11-04T04:07:15;13.23;;;12.33;;
11255;SDS011;5685;52.384;13.420;2022-11-04T04:10:24;13.50;;;12.40;;
11255;SDS011;5685;52.384;13.420;2022-11-04T04:13:41;12.70;;;11.80;;
11255;SDS011;5685;52.384;13.420;2022-11-04T04:16:52;12.37;;;11.47;;
11255;SDS011;5685;52.384;13.420;2022-11-04T04:19:58;13.03;;;12.13;;
11255;SDS011;5685;52.384;13.420;2022-11-04T04:23:04;13.90;;;12.53;;
11255;SDS011;5685;52.384;13.420;2022-11-04T04:26:25;12.80;;;11.80;;
11255;SDS011;5685;52.384;13.420;2022-11-04T04:29:45;13.37;;;12.40;;
11255;SDS011;5685;52.384;13.420;2022-11-04T04:32:49;13.20;;;12.10;;
11255;SDS011;5685;52.384;13.420;2022-11-04T04:35:56;13.77;;;12.57;;
11255;SDS011;5685;52.384;13.420;2022-11-04T04:39:01;14.03;;;12.83;;
11255;SDS011;5685;52.384;13.420;2022-11-04T04:42:23;13.50;;;12.47;;
11255;SDS011;5685;52.384;13.420;2022-11-04T04:45:43;13.03;;;12.00;;
11255;SDS011;5685;52.384;13.420;2022-11-04T04:48:51;12.53;;;11.70;;
11255;SDS011;5685;52.384;13.420;2022-11-04T04:51:55;12.53;;;11.73;;
11255;SDS011;5685;52.384;13.420;2022-11-04T04:54:57;13.20;;;12.30;;
11255;SDS011;5685;52.384;13.420;2022-11-04T04:57:59;12.50;;;11.60;;
11255;SDS011;5685;52.384;13.420;2022-11-04T05:01:02;12.43;;;11.50;;
11255;SDS011;5685;52.384;13.420;2022-11-04T05:04:04;12.50;;;11.67;;
11255;SDS011;5685;52.384;13.420;2022-11-04T05:07:08;12.23;;;11.33;;
11255;SDS011;5685;52.384;13.420;2022-11-04T05:10:11;12.43;;;11.43;;
11255;SDS011;5685;52.384;13.420;2022-11-04T05:13:15;13.03;;;12.13;;
11255;SDS011;5685;52.384;13.420;2022-11-04T05:16:28;12.73;;;11.73;;
11255;SDS011;5685;52.384;13.420;2022-11-04T05:19:31;12.60;;;11.70;;
11255;SDS011;5685;52.384;13.420;2022-11-04T05:22:34;12.23;;;11.33;;
11255;SDS011;5685;52.384;13.420;2022-11-04T05:25:36;12.50;;;11.60;;
11255;SDS011;5685;52.384;13.420;2022-11-04T05:28:39;12.73;;;11.80;;
11255;SDS011;5685;52.384;13.420;2022-11-04T05:31:41;11.93;;;11.23;;
11255;SDS011;5685;52.384;13.420;2022-11-04T05:34:44;12.70;;;11.80;;
11255;SDS011;5685;52.384;13.420;2022-11-04T05:37:47;13.47;;;12.30;;
11255;SDS011;5685;52.384;13.420;2022-11-04T05:40:49;12.10;;;11.30;;
11255;SDS011;5685;52.384;13.420;2022-11-04T05:43:52;12.77;;;11.77;;
11255;SDS011;5685;52.384;13.420;2022-11-04T05:46:55;12.33;;;11.33;;
11255;SDS011;5685;52.384;13.420;2022-11-04T05:49:57;12.03;;;11.23;;
11255;SDS011;5685;52.384;13.420;2022-11-04T05:53:01;12.43;;;11.53;;
11255;SDS011;5685;52.384;13.420;2022-11-04T05:56:03;12.07;;;11.27;;
11255;SDS011;5685;52.384;13.420;2022-11-04T05:59:06;12.27;;;11.50;;
11255;SDS011;5685;52.384;13.420;2022-11-04T06:02:08;12.33;;;11.50;;
11255;SDS011;5685;52.384;13.420;2022-11-04T06:05:10;12.57;;;11.77;;
11255;SDS011;5685;52.384;13.420;2022-11-04T06:08:14;12.80;;;11.80;;
11255;SDS011;5685;52.384;13.420;2022-11-04T06:11:16;11.97;;;11.10;;
11255;SDS011;5685;52.384;13.420;2022-11-04T06:14:21;13.57;;;12.47;;
11255;SDS011;5685;52.384;13.420;2022-11-04T06:17:23;12.23;;;11.53;;
11255;SDS011;5685;52.384;13.420;2022-11-04T06:20:26;12.33;;;11.53;;
11255;SDS011;5685;52.384;13.420;2022-11-04T06:23:29;12.53;;;11.63;;
11255;SDS011;5685;52.384;13.420;2022-11-04T06:26:31;11.90;;;11.10;;
11255;SDS011;5685;52.384;13.420;2022-11-04T06:29:34;12.40;;;11.50;;
11255;SDS011;5685;52.384;13.420;2022-11-04T06:32:39;12.33;;;11.37;;
11255;SDS011;5685;52.384;13.420;2022-11-04T06:35:41;12.53;;;11.63;;
11255;SDS011;5685;52.384;13.420;2022-11-04T06:38:45;11.87;;;11.07;;
11255;SDS011;5685;52.384;13.420;2022-11-04T06:41:47;12.10;;;11.30;;
11255;SDS011;5685;52.384;13.420;2022-11-04T06:44:49;12.27;;;11.37;;
11255;SDS011;5685;52.384;13.420;2022-11-04T06:47:51;12.10;;;11.30;;
11255;SDS011;5685;52.384;13.420;2022-11-04T06:50:53;12.30;;;11.50;;
11255;SDS011;5685;52.384;13.420;2022-11-04T06:53:57;13.10;;;12.10;;
11255;SDS011;5685;52.384;13.420;2022-11-04T06:56:59;13.20;;;12.20;;
11255;SDS011;5685;52.384;13.420;2022-11-04T07:00:02;14.87;;;13.77;;
11255;SDS011;5685;52.384;13.420;2022-11-04T07:03:05;13.43;;;12.50;;
11255;SDS011;5685;52.384;13.420;2022-11-04T07:06:08;13.77;;;12.67;;
11255;SDS011;5685;52.384;13.420;2022-11-04T07:09:13;13.27;;;12.37;;
11255;SDS011;5685;52.384;13.420;2022-11-04T07:12:16;12.83;;;11.93;;
11255;SDS011;5685;52.384;13.420;2022-11-04T07:15:18;13.73;;;12.73;;
11255;SDS011;5685;52.384;13.420;2022-11-04T07:18:20;13.13;;;11.93;;
11255;SDS011;5685;52.384;13.420;2022-11-04T07:21:22;12.57;;;11.77;;
11255;SDS011;5685;52.384;13.420;2022-11-04T07:24:26;12.90;;;12.00;;
11255;SDS011;5685;52.384;13.420;2022-11-04T07:27:28;13.10;;;12.10;;
11255;SDS011;5685;52.384;13.420;2022-11-04T07:30:30;13.30;;;12.40;;
11255;SDS011;5685;52.384;13.420;2022-11-04T07:33:33;13.10;;;12.10;;
11255;SDS011;5685;52.384;13.420;2022-11-04T07:36:35;12.97;;;12.00;;
11255;SDS011;5685;52.384;13.420;2022-11-04T07:39:38;13.17;;;12.27;;
11255;SDS011;5685;52.384;13.420;2022-11-04T07:42:43;13.20;;;12.13;;
11255;SDS011;5685;52.384;13.420;2022-11-04T07:45:46;13.63;;;12.73;;
11255;SDS011;5685;52.384;13.420;2022-11-04T07:48:48;13.70;;;12.70;;
11255;SDS011;5685;52.384;13.420;2022-11-04T07:51:50;12.40;;;11.50;;
11255;SDS011;5685;52.384;13.420;2022-11-04T07:54:54;12.33;;;11.40;;
11255;SDS011;5685;52.384;13.420;2022-11-04T07:57:56;12.80;;;11.90;;
11255;SDS011;5685;52.384;13.420;2022-11-04T08:00:58;12.93;;;12.00;;
11255;SDS011;5685;52.384;13.420;2022-11-04T08:04:01;13.00;;;12.07;;
11255;SDS011;5685;52.384;13.420;2022-11-04T08:07:06;13.27;;;12.27;;
11255;SDS011;5685;52.384;13.420;2022-11-04T08:10:10;12.80;;;11.80;;
11255;SDS011;5685;52.384;13.420;2022-11-04T08:13:13;13.30;;;12.30;;
11255;SDS011;5685;52.384;13.420;2022-11-04T08:16:15;12.70;;;11.77;;
11255;SDS011;5685;52.384;13.420;2022-11-04T08:19:20;13.83;;;12.80;;
11255;SDS011;5685;52.384;13.420;2022-11-04T08:22:22;13.10;;;12.20;;
11255;SDS011;5685;52.384;13.420;2022-11-04T08:25:26;13.23;;;12.10;;
11255;SDS011;5685;52.384;13.420;2022-11-04T08:28:28;13.63;;;12.63;;
11255;SDS011;5685;52.384;13.420;2022-11-04T08:31:30;13.00;;;12.10;;
11255;SDS011;5685;52.384;13.420;2022-11-04T08:34:33;12.30;;;11.50;;
11255;SDS011;5685;52.384;13.420;2022-11-04T08:37:35;13.27;;;12.33;;
11255;SDS011;5685;52.384;13.420;2022-11-04T08:40:38;12.50;;;11.57;;
11255;SDS011;5685;52.384;13.420;2022-11-04T08:43:41;13.30;;;12.30;;
11255;SDS011;5685;52.384;13.420;2022-11-04T08:46:43;13.30;;;12.20;;
11255;SDS011;5685;52.384;13.420;2022-11-04T08:49:46;13.20;;;12.20;;
11255;SDS011;5685;52.384;13.420;2022-11-04T08:52:48;13.13;;;12.13;;
11255;SDS011;5685;52.384;13.420;2022-11-04T08:55:52;12.90;;;11.90;;
11255;SDS011;5685;52.384;13.420;2022-11-04T08:58:55;13.07;;;11.97;;
11255;SDS011;5685;52.384;13.420;2022-11-04T09:01:58;12.27;;;11.37;;
11255;SDS011;5685;52.384;13.420;2022-11-04T09:05:00;12.33;;;11.50;;
11255;SDS011;5685;52.384;13.420;2022-11-04T09:08:02;12.17;;;11.37;;
11255;SDS011;5685;52.384;13.420;2022-11-04T09:11:07;12.93;;;12.03;;
11255;SDS011;5685;52.384;13.420;2022-11-04T09:14:12;12.80;;;11.97;;
11255;SDS011;5685;52.384;13.420;2022-11-04T09:17:16;12.20;;;11.40;;
11255;SDS011;5685;52.384;13.420;2022-11-04T09:20:19;11.90;;;11.20;;
11255;SDS011;5685;52.384;13.420;2022-11-04T09:23:21;12.03;;;11.13;;
11255;SDS011;5685;52.384;13.420;2022-11-04T09:26:24;12.00;;;11.20;;
11255;SDS011;5685;52.384;13.420;2022-11-04T09:29:27;13.27;;;12.30;;
11255;SDS011;5685;52.384;13.420;2022-11-04T09:32:32;12.37;;;11.47;;
11255;SDS011;5685;52.384;13.420;2022-11-04T09:35:34;11.73;;;10.93;;
11255;SDS011;5685;52.384;13.420;2022-11-04T09:38:37;12.47;;;11.67;;
11255;SDS011;5685;52.384;13.420;2022-11-04T09:41:52;12.23;;;11.30;;
11255;SDS011;5685;52.384;13.420;2022-11-04T09:45:11;11.60;;;10.90;;
11255;SDS011;5685;52.384;13.420;2022-11-04T09:48:18;11.80;;;11.03;;
11255;SDS011;5685;52.384;13.420;2022-11-04T09:51:26;12.23;;;11.43;;
11255;SDS011;5685;52.384;13.420;2022-11-04T09:54:31;12.60;;;11.23;;
11255;SDS011;5685;52.384;13.420;2022-11-04T09:57:40;11.83;;;11.13;;
11255;SDS011;5685;52.384;13.420;2022-11-04T10:00:43;12.00;;;11.30;;
11255;SDS011;5685;52.384;13.420;2022-11-04T10:04:03;11.83;;;11.13;;
11255;SDS011;5685;52.384;13.420;2022-11-04T10:07:22;11.87;;;11.10;;
11255;SDS011;5685;52.384;13.420;2022-11-04T10:10:40;11.57;;;10.67;;
11255;SDS011;5685;52.384;13.420;2022-11-04T10:13:55;11.53;;;10.73;;
11255;SDS011;5685;52.384;13.420;2022-11-04T10:17:22;11.37;;;10.67;;
11255;SDS011;5685;52.384;13.420;2022-11-04T10:20:47;11.80;;;11.03;;
11255;SDS011;5685;52.384;13.420;2022-11-04T10:24:00;11.43;;;10.63;;
11255;SDS011;5685;52.384;13.420;2022-11-04T10:27:14;11.47;;;10.67;;
11255;SDS011;5685;52.384;13.420;2022-11-04T10:30:22;10.97;;;10.37;;
11255;SDS011;5685;52.384;13.420;2022-11-04T10:33:26;11.40;;;10.60;;
11255;SDS011;5685;52.384;13.420;2022-11-04T10:36:33;11.47;;;10.77;;
11255;SDS011;5685;52.384;13.420;2022-11-04T10:39:39;11.50;;;10.73;;
11255;SDS011;5685;52.384;13.420;2022-11-04T10:42:45;11.10;;;10.30;;
11255;SDS011;5685;52.384;13.420;2022-11-04T10:45:51;11.37;;;10.73;;
11255;SDS011;5685;52.384;13.420;2022-11-04T10:49:07;10.80;;;10.13;;
11255;SDS011;5685;52.384;13.420;2022-11-04T10:52:54;11.13;;;10.53;;
11255;SDS011;5685;52.384;13.420;2022-11-04T10:56:11;11.53;;;10.77;;
11255;SDS011;5685;52.384;13.420;2022-11-04T10:59:22;11.93;;;11.23;;
11255;SDS011;5685;52.384;13.420;2022-11-04T11:05:48;11.70;;;11.10;;
11255;SDS011;5685;52.384;13.420;2022-11-04T11:08:53;10.67;;;9.97;;
11255;SDS011;5685;52.384;13.420;2022-11-04T11:11:59;11.03;;;10.43;;
11255;SDS011;5685;52.384;13.420;2022-11-04T11:15:15;10.87;;;10.23;;
11255;SDS011;5685;52.384;13.420;2022-11-04T11:18:27;11.47;;;10.77;;
11255;SDS011;5685;52.384;13.420;2022-11-04T11:21:30;11.47;;;10.77;;
11255;SDS011;5685;52.384;13.420;2022-11-04T11:24:44;11.03;;;10.33;;
11255;SDS011;5685;52.384;13.420;2022-11-04T11:27:47;11.20;;;10.50;;
11255;SDS011;5685;52.384;13.420;2022-11-04T11:30:53;11.23;;;10.63;;
11255;SDS011;5685;52.384;13.420;2022-11-04T11:34:01;11.07;;;10.47;;
11255;SDS011;5685;52.384;13.420;2022-11-04T11:37:12;11.23;;;10.63;;
11255;SDS011;5685;52.384;13.420;2022-11-04T11:40:23;11.43;;;10.73;;
11255;SDS011;5685;52.384;13.420;2022-11-04T11:43:28;11.40;;;10.70;;
11255;SDS011;5685;52.384;13.420;2022-11-04T11:46:33;10.73;;;10.13;;
11255;SDS011;5685;52.384;13.420;2022-11-04T11:49:42;10.87;;;10.27;;
11255;SDS011;5685;52.384;13.420;2022-11-04T11:52:45;11.03;;;10.37;;
11255;SDS011;5685;52.384;13.420;2022-11-04T11:55:49;11.60;;;10.90;;
11255;SDS011;5685;52.384;13.420;2022-11-04T11:58:56;11.37;;;10.67;;
11255;SDS011;5685;52.384;13.420;2022-11-04T12:05:34;11.63;;;10.93;;
11255;SDS011;5685;52.384;13.420;2022-11-04T12:12:18;11.30;;;10.60;;
11255;SDS011;5685;52.384;13.420;2022-11-04T12:15:47;10.90;;;10.30;;
11255;SDS011;5685;52.384;13.420;2022-11-04T12:19:16;11.97;;;11.27;;
11255;SDS011;5685;52.384;13.420;2022-11-04T12:22:42;39.00;;;26.23;;
11255;SDS011;5685;52.384;13.420;2022-11-04T12:25:58;33.47;;;25.43;;
11255;SDS011;5685;52.384;13.420;2022-11-04T12:29:18;36.53;;;26.03;;
11255;SDS011;5685;52.384;13.420;2022-11-04T12:32:37;24.67;;;19.00;;
11255;SDS011;5685;52.384;13.420;2022-11-04T12:36:07;18.53;;;16.53;;
11255;SDS011;5685;52.384;13.420;2022-11-04T12:39:27;16.10;;;14.70;;
11255;SDS011;5685;52.384;13.420;2022-11-04T12:43:11;14.03;;;12.83;;
11255;SDS011;5685;52.384;13.420;2022-11-04T12:46:21;13.20;;;12.20;;
11255;SDS011;5685;52.384;13.420;2022-11-04T12:49:44;12.70;;;11.80;;
11255;SDS011;5685;52.384;13.420;2022-11-04T12:53:22;12.03;;;11.13;;
11255;SDS011;5685;52.384;13.420;2022-11-04T12:56:52;12.23;;;11.43;;
11255;SDS011;5685;52.384;13.420;2022-11-04T13:00:07;11.80;;;10.87;;
11255;SDS011;5685;52.384;13.420;2022-11-04T13:03:14;11.83;;;11.03;;
11255;SDS011;5685;52.384;13.420;2022-11-04T13:06:21;11.67;;;10.87;;
11255;SDS011;5685;52.384;13.420;2022-11-04T13:09:29;12.00;;;11.30;;
11255;SDS011;5685;52.384;13.420;2022-11-04T13:12:38;11.57;;;10.73;;
11255;SDS011;5685;52.384;13.420;2022-11-04T13:15:44;11.20;;;10.40;;
11255;SDS011;5685;52.384;13.420;2022-11-04T13:18:50;10.93;;;10.33;;
11255;SDS011;5685;52.384;13.420;2022-11-04T13:21:53;11.37;;;10.67;;
11255;SDS011;5685;52.384;13.420;2022-11-04T13:24:57;11.13;;;10.43;;
11255;SDS011;5685;52.384;13.420;2022-11-04T13:28:07;11.33;;;10.63;;
11255;SDS011;5685;52.384;13.420;2022-11-04T13:31:15;10.93;;;10.23;;
11255;SDS011;5685;52.384;13.420;2022-11-04T13:34:25;11.40;;;10.70;;
11255;SDS011;5685;52.384;13.420;2022-11-04T13:37:39;11.60;;;10.90;;
11255;SDS011;5685;52.384;13.420;2022-11-04T13:40:51;11.40;;;10.70;;
11255;SDS011;5685;52.384;13.420;2022-11-04T13:44:29;11.13;;;10.43;;
11255;SDS011;5685;52.384;13.420;2022-11-04T13:47:41;11.73;;;11.03;;
11255;SDS011;5685;52.384;13.420;2022-11-04T13:50:56;11.33;;;10.73;;
11255;SDS011;5685;52.384;13.420;2022-11-04T13:54:02;11.73;;;11.03;;
11255;SDS011;5685;52.384;13.420;2022-11-04T13:57:06;11.27;;;10.57;;
11255;SDS011;5685;52.384;13.420;2022-11-04T14:00:21;11.57;;;10.87;;
11255;SDS011;5685;52.384;13.420;2022-11-04T14:03:39;11.37;;;10.67;;
11255;SDS011;5685;52.384;13.420;2022-11-04T14:06:54;11.60;;;10.70;;
11255;SDS011;5685;52.384;13.420;2022-11-04T14:10:00;11.97;;;11.17;;
11255;SDS011;5685;52.384;13.420;2022-11-04T14:16:46;11.73;;;10.93;;
11255;SDS011;5685;52.384;13.420;2022-11-04T14:19:56;11.17;;;10.47;;
11255;SDS011;5685;52.384;13.420;2022-11-04T14:23:00;12.90;;;11.93;;
11255;SDS011;5685;52.384;13.420;2022-11-04T14:26:04;15.87;;;14.47;;
11255;SDS011;5685;52.384;13.420;2022-11-04T14:29:08;14.03;;;12.93;;
11255;SDS011;5685;52.384;13.420;2022-11-04T14:32:21;13.13;;;12.13;;
11255;SDS011;5685;52.384;13.420;2022-11-04T14:35:27;12.37;;;11.57;;
11255;SDS011;5685;52.384;13.420;2022-11-04T14:38:31;12.13;;;11.33;;
11255;SDS011;5685;52.384;13.420;2022-11-04T14:41:56;11.33;;;10.63;;
11255;SDS011;5685;52.384;13.420;2022-11-04T14:45:00;12.10;;;11.13;;
11255;SDS011;5685;52.384;13.420;2022-11-04T14:48:08;12.30;;;11.60;;
11255;SDS011;5685;52.384;13.420;2022-11-04T14:51:19;11.53;;;10.83;;
11255;SDS011;5685;52.384;13.420;2022-11-04T14:54:29;11.67;;;10.97;;
11255;SDS011;5685;52.384;13.420;2022-11-04T14:57:38;11.47;;;10.77;;
11255;SDS011;5685;52.384;13.420;2022-11-04T15:00:49;11.47;;;10.77;;
11255;SDS011;5685;52.384;13.420;2022-11-04T15:03:55;11.40;;;10.70;;
11255;SDS011;5685;52.384;13.420;2022-11-04T15:07:05;11.93;;;11.23;;
11255;SDS011;5685;52.384;13.420;2022-11-04T15:10:25;12.23;;;11.43;;
11255;SDS011;5685;52.384;13.420;2022-11-04T15:13:31;11.43;;;10.80;;
11255;SDS011;5685;52.384;13.420;2022-11-04T15:16:34;12.93;;;12.13;;
11255;SDS011;5685;52.384;13.420;2022-11-04T15:19:38;12.07;;;11.37;;
11255;SDS011;5685;52.384;13.420;2022-11-04T15:22:42;11.63;;;10.93;;
11255;SDS011;5685;52.384;13.420;2022-11-04T15:25:47;11.97;;;11.27;;
11255;SDS011;5685;52.384;13.420;2022-11-04T15:28:50;11.87;;;11.17;;
11255;SDS011;5685;52.384;13.420;2022-11-04T15:31:54;12.10;;;11.30;;
11255;SDS011;5685;52.384;13.420;2022-11-04T15:35:01;12.20;;;11.30;;
11255;SDS011;5685;52.384;13.420;2022-11-04T15:38:03;12.23;;;11.33;;
11255;SDS011;5685;52.384;13.420;2022-11-04T15:41:05;11.93;;;11.23;;
11255;SDS011;5685;52.384;13.420;2022-11-04T15:44:26;11.30;;;10.60;;
11255;SDS011;5685;52.384;13.420;2022-11-04T15:47:30;11.57;;;10.87;;
11255;SDS011;5685;52.384;13.420;2022-11-04T15:50:34;12.43;;;11.50;;
11255;SDS011;5685;52.384;13.420;2022-11-04T15:53:38;12.30;;;11.40;;
11255;SDS011;5685;52.384;13.420;2022-11-04T15:56:51;12.10;;;11.40;;
11255;SDS011;5685;52.384;13.420;2022-11-04T15:59:55;12.40;;;11.60;;
11255;SDS011;5685;52.384;13.420;2022-11-04T16:03:01;12.07;;;11.37;;
11255;SDS011;5685;52.384;13.420;2022-11-04T16:06:06;11.97;;;11.17;;
11255;SDS011;5685;52.384;13.420;2022-11-04T16:09:17;11.63;;;10.93;;
11255;SDS011;5685;52.384;13.420;2022-11-04T16:12:24;11.70;;;10.90;;
11255;SDS011;5685;52.384;13.420;2022-11-04T16:15:30;11.30;;;10.70;;
11255;SDS011;5685;52.384;13.420;2022-11-04T16:18:36;11.73;;;11.03;;
11255;SDS011;5685;52.384;13.420;2022-11-04T16:21:43;11.57;;;10.87;;
11255;SDS011;5685;52.384;13.420;2022-11-04T16:24:48;11.47;;;10.80;;
11255;SDS011;5685;52.384;13.420;2022-11-04T16:27:53;11.27;;;10.57;;
11255;SDS011;5685;52.384;13.420;2022-11-04T16:30:56;11.57;;;10.87;;
11255;SDS011;5685;52.384;13.420;2022-11-04T16:33:59;11.53;;;10.83;;
11255;SDS011;5685;52.384;13.420;2022-11-04T16:37:03;11.93;;;11.23;;
11255;SDS011;5685;52.384;13.420;2022-11-04T16:40:05;11.53;;;10.83;;
11255;SDS011;5685;52.384;13.420;2022-11-04T16:43:09;11.50;;;10.80;;
11255;SDS011;5685;52.384;13.420;2022-11-04T16:46:12;11.83;;;11.13;;
11255;SDS011;5685;52.384;13.420;2022-11-04T16:49:14;11.77;;;10.77;;
11255;SDS011;5685;52.384;13.420;2022-11-04T16:52:21;11.27;;;10.57;;
11255;SDS011;5685;52.384;13.420;2022-11-04T16:55:25;11.43;;;10.70;;
11255;SDS011;5685;52.384;13.420;2022-11-04T16:58:28;11.50;;;10.80;;
11255;SDS011;5685;52.384;13.420;2022-11-04T17:01:30;11.43;;;10.77;;
11255;SDS011;5685;52.384;13.420;2022-11-04T17:04:32;11.50;;;10.83;;
11255;SDS011;5685;52.384;13.420;2022-11-04T17:07:37;12.00;;;11.30;;
11255;SDS011;5685;52.384;13.420;2022-11-04T17:10:40;11.90;;;11.20;;
11255;SDS011;5685;52.384;13.420;2022-11-04T17:13:43;12.17;;;11.47;;
11255;SDS011;5685;52.384;13.420;2022-11-04T17:16:45;12.17;;;11.17;;
11255;SDS011;5685;52.384;13.420;2022-11-04T17:19:47;11.60;;;10.90;;
11255;SDS011;5685;52.384;13.420;2022-11-04T17:22:51;11.43;;;10.83;;
11255;SDS011;5685;52.384;13.420;2022-11-04T17:25:53;12.37;;;11.57;;
11255;SDS011;5685;52.384;13.420;2022-11-04T17:28:55;12.43;;;11.63;;
11255;SDS011;5685;52.384;13.420;2022-11-04T17:31:58;11.50;;;10.77;;
11255;SDS011;5685;52.384;13.420;2022-11-04T17:35:00;11.90;;;11.10;;
11255;SDS011;5685;52.384;13.420;2022-11-04T17:38:04;11.43;;;10.77;;
11255;SDS011;5685;52.384;13.420;2022-11-04T17:41:06;12.07;;;11.17;;
11255;SDS011;5685;52.384;13.420;2022-11-04T17:44:26;12.43;;;11.63;;
11255;SDS011;5685;52.384;13.420;2022-11-04T17:47:28;12.20;;;11.40;;
11255;SDS011;5685;52.384;13.420;2022-11-04T17:50:36;12.47;;;11.67;;
11255;SDS011;5685;52.384;13.420;2022-11-04T17:53:41;12.53;;;11.73;;
11255;SDS011;5685;52.384;13.420;2022-11-04T17:56:44;12.07;;;11.30;;
11255;SDS011;5685;52.384;13.420;2022-11-04T17:59:46;12.17;;;11.47;;
11255;SDS011;5685;52.384;13.420;2022-11-04T18:02:48;11.87;;;11.07;;
11255;SDS011;5685;52.384;13.420;2022-11-04T18:05:56;11.90;;;11.17;;
11255;SDS011;5685;52.384;13.420;2022-11-04T18:09:00;12.40;;;11.60;;
11255;SDS011;5685;52.384;13.420;2022-11-04T18:12:04;13.00;;;12.10;;
11255;SDS011;5685;52.384;13.420;2022-11-04T18:15:24;12.73;;;11.87;;
11255;SDS011;5685;52.384;13.420;2022-11-04T18:18:27;13.17;;;12.27;;
11255;SDS011;5685;52.384;13.420;2022-11-04T18:21:29;12.63;;;11.73;;
11255;SDS011;5685;52.384;13.420;2022-11-04T18:24:33;12.83;;;11.90;;
11255;SDS011;5685;52.384;13.420;2022-11-04T18:27:35;12.50;;;11.70;;
11255;SDS011;5685;52.384;13.420;2022-11-04T18:30:37;12.40;;;11.60;;
11255;SDS011;5685;52.384;13.420;2022-11-04T18:33:39;12.93;;;12.00;;